createdAt,value
2023-03-21T00:08:24.233Z,8.57
2023-03-21T00:11:08.808Z,8.43
2023-03-21T00:14:02.448Z,8.95
2023-03-21T00:16:36.006Z,8.95
2023-03-21T00:19:10.150Z,8.38
2023-03-21T00:22:05.916Z,7.40
2023-03-21T00:24:39.009Z,7.97
2023-03-21T00:27:44.859Z,8.20
2023-03-21T00:30:12.915Z,7.72
2023-03-21T00:32:55.492Z,7.82
2023-03-21T00:36:06.183Z,8.32
2023-03-21T00:38:32.581Z,8.30
2023-03-21T00:41:18.790Z,8.68
2023-03-21T00:43:58.183Z,8.32
2023-03-21T00:46:30.109Z,8.07
2023-03-21T00:49:03.756Z,8.00
2023-03-21T00:51:32.081Z,7.80
2023-03-21T00:54:05.703Z,7.85
2023-03-21T00:59:02.150Z,7.15
2023-03-21T01:01:32.194Z,7.03
2023-03-21T01:04:10.921Z,7.40
2023-03-21T01:06:40.430Z,7.57
2023-03-21T01:09:11.166Z,7.63
2023-03-21T01:11:38.987Z,7.60
2023-03-21T01:14:21.403Z,7.20
2023-03-21T01:16:54.798Z,6.80
2023-03-21T01:19:35.187Z,6.35
2023-03-21T01:22:08.774Z,7.03
2023-03-21T01:24:50.383Z,6.90
2023-03-21T01:27:22.220Z,6.57
2023-03-21T01:29:50.394Z,6.97
2023-03-21T01:32:24.856Z,6.78
2023-03-21T01:34:52.543Z,7.50
2023-03-21T01:39:54.084Z,6.13
2023-03-21T01:42:45.643Z,7.18
2023-03-21T01:45:40.331Z,6.70
2023-03-21T01:48:08.632Z,7.15
2023-03-21T01:50:49.916Z,6.82
2023-03-21T01:53:41.009Z,6.22
2023-03-21T01:56:17.642Z,6.82
2023-03-21T01:58:55.837Z,6.63
2023-03-21T02:01:50.519Z,5.65
2023-03-21T02:04:28.034Z,6.05
2023-03-21T02:07:14.546Z,6.85
2023-03-21T02:09:51.539Z,6.80
2023-03-21T02:12:25.554Z,6.30
2023-03-21T02:15:00.970Z,6.93
2023-03-21T02:18:11.932Z,6.32
2023-03-21T02:21:11.574Z,6.07
2023-03-21T02:24:07.201Z,6.18
2023-03-21T02:27:03.452Z,6.55
2023-03-21T02:29:46.508Z,5.95
2023-03-21T02:32:37.687Z,6.28
2023-03-21T02:35:30.529Z,6.00
2023-03-21T02:38:01.114Z,6.05
2023-03-21T02:40:53.486Z,6.25
2023-03-21T02:43:39.625Z,5.88
2023-03-21T02:46:33.443Z,6.03
2023-03-21T02:49:14.984Z,6.18
2023-03-21T02:51:46.661Z,6.20
2023-03-21T02:54:30.395Z,5.72
2023-03-21T02:57:16.010Z,5.80
2023-03-21T02:59:54.355Z,6.15
2023-03-21T03:02:30.931Z,6.00
2023-03-21T03:05:14.733Z,6.15
2023-03-21T03:08:11.809Z,6.60
2023-03-21T03:11:03.381Z,6.85
2023-03-21T03:13:35.895Z,6.70
2023-03-21T03:16:45.101Z,6.38
2023-03-21T03:19:23.473Z,6.32
2023-03-21T03:21:57.537Z,6.60
2023-03-21T03:24:36.394Z,6.55
2023-03-21T03:27:29.448Z,7.35
2023-03-21T03:30:02.532Z,6.47
2023-03-21T03:32:53.948Z,7.13
2023-03-21T03:35:29.398Z,5.88
2023-03-21T03:38:00.028Z,6.55
2023-03-21T03:40:38.219Z,6.30
2023-03-21T03:43:19.897Z,5.63
2023-03-21T03:46:00.894Z,6.20
2023-03-21T03:48:47.982Z,6.20
2023-03-21T03:51:38.515Z,6.55
2023-03-21T03:54:18.515Z,6.30
2023-03-21T03:56:46.979Z,7.53
2023-03-21T03:59:23.222Z,6.70
2023-03-21T04:02:03.802Z,6.75
2023-03-21T04:04:43.632Z,6.60
2023-03-21T04:07:11.387Z,6.80
2023-03-21T04:09:44.663Z,6.95
2023-03-21T04:12:17.763Z,6.57
2023-03-21T04:15:10.696Z,7.93
2023-03-21T04:17:47.408Z,8.05
2023-03-21T04:20:36.991Z,8.13
2023-03-21T04:23:06.295Z,7.70
2023-03-21T04:25:40.311Z,7.75
2023-03-21T04:28:09.948Z,7.07
2023-03-21T04:31:03.802Z,7.82
2023-03-21T04:33:45.233Z,6.85
2023-03-21T04:36:25.144Z,6.57
2023-03-21T04:38:54.863Z,6.28
2023-03-21T04:41:27.193Z,7.22
2023-03-21T04:44:01.030Z,7.95
2023-03-21T04:46:28.655Z,7.05
2023-03-21T04:49:05.260Z,6.50
2023-03-21T04:51:33.031Z,7.18
2023-03-21T04:54:03.718Z,8.80
2023-03-21T04:59:29.278Z,9.85
2023-03-21T05:01:59.561Z,9.50
2023-03-21T05:04:27.341Z,7.63
2023-03-21T05:06:56.327Z,9.48
2023-03-21T05:09:23.774Z,8.35
2023-03-21T05:11:51.836Z,7.68
2023-03-21T05:14:21.366Z,7.68
2023-03-21T05:16:53.071Z,8.45
2023-03-21T05:19:22.761Z,8.73
2023-03-21T05:21:51.532Z,7.65
2023-03-21T05:24:22.934Z,7.70
2023-03-21T05:26:52.238Z,7.05
2023-03-21T05:29:22.764Z,7.53
2023-03-21T05:31:58.585Z,7.43
2023-03-21T05:34:27.031Z,7.88
2023-03-21T05:36:54.994Z,7.90
2023-03-21T05:39:24.785Z,7.55
2023-03-21T05:42:05.016Z,7.80
2023-03-21T05:44:33.081Z,8.02
2023-03-21T05:47:04.790Z,8.35
2023-03-21T05:49:38.832Z,9.05
2023-03-21T05:52:06.764Z,8.65
2023-03-21T05:54:34.206Z,8.10
2023-03-21T05:57:02.213Z,8.48
2023-03-21T05:59:49.521Z,7.57
2023-03-21T06:02:18.418Z,8.40
2023-03-21T06:04:46.980Z,9.30
2023-03-21T06:07:14.458Z,8.57
2023-03-21T06:09:42.663Z,8.00
2023-03-21T06:12:09.989Z,9.18
2023-03-21T06:14:56.043Z,8.00
2023-03-21T06:17:30.791Z,8.93
2023-03-21T06:20:05.003Z,9.80
2023-03-21T06:22:37.115Z,10.40
2023-03-21T06:25:05.278Z,11.35
2023-03-21T06:27:32.908Z,10.65
2023-03-21T06:30:00.359Z,10.32
2023-03-21T06:32:31.476Z,11.60
2023-03-21T06:35:07.443Z,9.55
2023-03-21T06:37:35.003Z,11.07
2023-03-21T06:40:03.532Z,11.50
2023-03-21T06:42:32.453Z,12.30
2023-03-21T06:45:06.591Z,11.82
2023-03-21T06:47:33.947Z,11.68
2023-03-21T06:50:03.348Z,11.55
2023-03-21T06:52:33.259Z,11.43
2023-03-21T06:55:00.590Z,11.70
2023-03-21T06:57:28.197Z,10.77
2023-03-21T06:59:55.629Z,10.77
2023-03-21T07:02:24.977Z,10.80
2023-03-21T07:05:04.768Z,10.65
2023-03-21T07:07:32.199Z,11.23
2023-03-21T07:09:59.525Z,11.02
2023-03-21T07:12:34.106Z,12.20
2023-03-21T07:15:12.229Z,11.25
2023-03-21T07:17:41.275Z,12.40
2023-03-21T07:20:09.032Z,11.80
2023-03-21T07:22:39.553Z,12.55
2023-03-21T07:25:07.966Z,12.52
2023-03-21T07:27:42.187Z,11.98
2023-03-21T07:30:10.680Z,12.43
2023-03-21T07:32:38.131Z,13.80
2023-03-21T07:35:07.657Z,12.70
2023-03-21T07:37:37.558Z,12.32
2023-03-21T07:40:10.798Z,12.65
2023-03-21T07:42:40.432Z,13.23
2023-03-21T07:45:09.682Z,12.18
2023-03-21T07:47:37.232Z,11.50
2023-03-21T07:50:05.129Z,10.80
2023-03-21T07:52:33.225Z,11.02
2023-03-21T07:55:00.863Z,9.25
2023-03-21T07:57:28.340Z,9.40
2023-03-21T07:59:55.748Z,8.20
2023-03-21T08:02:23.214Z,8.90
2023-03-21T08:04:50.639Z,8.93
2023-03-21T08:07:18.011Z,8.48
2023-03-21T08:09:45.387Z,9.25
2023-03-21T08:12:12.734Z,9.30
2023-03-21T08:14:40.217Z,8.43
2023-03-21T08:17:09.633Z,7.68
2023-03-21T08:19:37.808Z,8.20
2023-03-21T08:22:06.666Z,7.10
2023-03-21T08:24:35.167Z,6.82
2023-03-21T08:27:03.401Z,6.10
2023-03-21T08:29:40.483Z,6.68
2023-03-21T08:32:07.852Z,5.72
2023-03-21T08:34:35.534Z,6.60
2023-03-21T08:37:02.910Z,6.40
2023-03-21T08:39:30.312Z,6.40
2023-03-21T08:41:57.715Z,6.43
2023-03-21T08:44:26.111Z,6.78
2023-03-21T08:46:53.652Z,6.00
2023-03-21T08:49:21.026Z,6.10
2023-03-21T08:51:50.303Z,7.28
2023-03-21T08:54:24.124Z,6.07
2023-03-21T08:56:52.381Z,6.00
2023-03-21T08:59:26.633Z,19.38
2023-03-21T09:01:57.405Z,12.32
2023-03-21T09:04:26.024Z,5.40
2023-03-21T09:06:56.198Z,9.00
2023-03-21T09:09:24.026Z,5.45
2023-03-21T09:11:52.574Z,5.40
2023-03-21T09:14:21.892Z,4.13
2023-03-21T09:16:52.051Z,5.55
2023-03-21T09:19:21.100Z,5.18
2023-03-21T09:21:52.382Z,4.68
2023-03-21T09:24:20.629Z,5.18
2023-03-21T09:26:50.898Z,4.95
2023-03-21T09:29:21.034Z,7.07
2023-03-21T09:31:48.780Z,5.32
2023-03-21T09:34:16.575Z,5.30
2023-03-21T09:36:44.346Z,4.57
2023-03-21T09:39:12.801Z,4.80
2023-03-21T09:41:44.123Z,5.05
2023-03-21T09:44:17.378Z,4.35
2023-03-21T09:46:45.285Z,4.25
2023-03-21T09:49:18.027Z,3.70
2023-03-21T09:51:48.781Z,3.60
2023-03-21T09:54:23.374Z,3.50
2023-03-21T09:56:53.607Z,4.30
2023-03-21T09:59:28.812Z,4.43
2023-03-21T10:01:58.597Z,4.25
2023-03-21T10:04:26.853Z,4.60
2023-03-21T10:06:59.143Z,4.03
2023-03-21T10:09:28.195Z,4.03
2023-03-21T10:11:55.539Z,3.40
2023-03-21T10:14:36.659Z,4.50
2023-03-21T10:17:22.759Z,3.95
2023-03-21T10:19:52.282Z,3.88
2023-03-21T10:22:19.640Z,3.75
2023-03-21T10:24:47.268Z,3.65
2023-03-21T10:27:14.866Z,3.72
2023-03-21T10:29:44.112Z,3.63
2023-03-21T10:32:15.823Z,3.45
2023-03-21T10:34:48.674Z,4.22
2023-03-21T10:37:16.861Z,4.00
2023-03-21T10:39:46.566Z,3.67
2023-03-21T10:42:24.809Z,3.72
2023-03-21T10:44:56.383Z,3.70
2023-03-21T10:47:34.876Z,3.55
2023-03-21T10:50:08.064Z,3.33
2023-03-21T10:52:38.143Z,3.50
2023-03-21T10:55:08.533Z,3.15
2023-03-21T10:57:38.188Z,3.60
2023-03-21T11:00:19.129Z,3.72
2023-03-21T11:02:49.549Z,3.00
2023-03-21T11:05:28.488Z,3.60
2023-03-21T11:08:09.424Z,3.50
2023-03-21T11:10:40.584Z,3.10
2023-03-21T11:13:18.655Z,3.45
2023-03-21T11:15:59.295Z,3.20
2023-03-21T11:18:27.853Z,3.63
2023-03-21T11:20:59.195Z,3.60
2023-03-21T11:23:28.757Z,4.00
2023-03-21T11:26:00.415Z,3.55
2023-03-21T11:28:46.446Z,12.95
2023-03-21T11:31:14.352Z,4.00
2023-03-21T11:33:57.182Z,4.18
2023-03-21T11:36:28.884Z,7.00
2023-03-21T11:39:01.934Z,3.40
2023-03-21T11:41:36.669Z,3.40
2023-03-21T11:44:32.912Z,2.92
2023-03-21T11:47:03.617Z,2.78
2023-03-21T11:49:37.607Z,3.17
2023-03-21T11:52:39.677Z,2.97
2023-03-21T11:55:21.675Z,4.43
2023-03-21T11:58:15.900Z,3.00
2023-03-21T12:01:04.709Z,3.42
2023-03-21T12:03:49.204Z,3.13
2023-03-21T12:06:30.149Z,6.45
2023-03-21T12:09:04.208Z,2.90
2023-03-21T12:11:39.437Z,3.22
2023-03-21T12:14:28.572Z,3.30
2023-03-21T12:16:59.253Z,3.28
2023-03-21T12:19:45.262Z,2.83
2023-03-21T12:22:24.319Z,3.40
2023-03-21T12:25:24.510Z,4.03
2023-03-21T12:28:04.174Z,3.50
2023-03-21T12:30:43.068Z,4.10
2023-03-21T12:33:21.910Z,3.13
2023-03-21T12:35:59.530Z,3.25
2023-03-21T12:38:39.454Z,2.60
2023-03-21T12:41:39.933Z,2.60
2023-03-21T12:44:29.525Z,2.53
2023-03-21T12:47:23.484Z,2.78
2023-03-21T12:50:06.748Z,2.70
2023-03-21T12:52:40.372Z,3.20
2023-03-21T12:55:19.205Z,3.00
2023-03-21T12:57:57.838Z,2.88
2023-03-21T13:00:33.623Z,3.20
2023-03-21T13:03:09.571Z,4.50
2023-03-21T13:05:48.088Z,3.20
2023-03-21T13:08:25.137Z,3.88
2023-03-21T13:10:58.524Z,3.42
2023-03-21T13:13:38.812Z,2.97
2023-03-21T13:16:26.141Z,5.22
2023-03-21T13:19:05.615Z,3.60
2023-03-21T13:21:58.913Z,3.25
2023-03-21T13:24:47.431Z,3.67
2023-03-21T13:27:20.744Z,3.60
2023-03-21T13:29:53.481Z,5.70
2023-03-21T13:32:32.373Z,3.60
2023-03-21T13:35:05.005Z,3.53
2023-03-21T13:37:34.747Z,3.80
2023-03-21T13:40:14.849Z,3.90
2023-03-21T13:42:46.387Z,3.80
2023-03-21T13:45:28.048Z,3.63
2023-03-21T13:48:00.932Z,3.47
2023-03-21T13:51:00.612Z,3.42
2023-03-21T13:53:43.738Z,3.33
2023-03-21T13:56:16.413Z,3.08
2023-03-21T13:58:50.596Z,3.55
2023-03-21T14:01:18.105Z,2.97
2023-03-21T14:03:47.159Z,3.95
2023-03-21T14:06:18.882Z,3.08
2023-03-21T14:08:48.345Z,3.22
2023-03-21T14:11:20.522Z,2.50
2023-03-21T14:13:51.730Z,3.70
2023-03-21T14:16:22.493Z,3.58
2023-03-21T14:18:56.748Z,3.58
2023-03-21T14:22:00.827Z,3.60
2023-03-21T14:24:33.958Z,3.70
2023-03-21T14:27:06.549Z,3.40
2023-03-21T14:29:39.952Z,3.28
2023-03-21T14:32:08.900Z,3.55
2023-03-21T14:37:14.428Z,3.22
2023-03-21T14:39:44.934Z,2.67
2023-03-21T14:42:15.834Z,3.47
2023-03-21T14:44:55.387Z,3.40
2023-03-21T14:47:34.602Z,3.03
2023-03-21T14:50:04.659Z,2.78
2023-03-21T14:52:35.308Z,3.10
2023-03-21T14:55:03.517Z,3.05
2023-03-21T14:57:40.127Z,2.83
2023-03-21T15:00:14.154Z,3.45
2023-03-21T15:02:42.525Z,3.42
2023-03-21T15:05:18.361Z,3.47
2023-03-21T15:08:01.532Z,5.38
2023-03-21T15:10:31.015Z,3.35
2023-03-21T15:13:15.254Z,2.95
2023-03-21T15:15:46.195Z,3.40
2023-03-21T15:18:20.458Z,3.50
2023-03-21T15:21:15.337Z,4.47
2023-03-21T15:23:53.455Z,3.80
2023-03-21T15:26:22.399Z,3.30
2023-03-21T15:29:01.412Z,3.42
2023-03-21T15:31:34.032Z,4.30
2023-03-21T15:34:03.225Z,3.22
2023-03-21T15:36:40.222Z,2.85
2023-03-21T15:39:17.635Z,3.35
2023-03-21T15:42:07.183Z,2.50
2023-03-21T15:44:35.964Z,2.72
2023-03-21T15:47:09.827Z,3.13
2023-03-21T15:49:44.629Z,3.05
2023-03-21T15:52:15.554Z,3.00
2023-03-21T15:54:59.899Z,2.85
2023-03-21T15:57:32.769Z,3.05
2023-03-21T16:00:09.395Z,2.90
2023-03-21T16:02:41.518Z,3.20
2023-03-21T16:05:47.709Z,2.83
2023-03-21T16:08:44.793Z,2.92
2023-03-21T16:11:28.564Z,3.10
2023-03-21T16:14:11.679Z,3.10
2023-03-21T16:17:19.495Z,3.00
2023-03-21T16:20:01.025Z,3.30
2023-03-21T16:22:38.792Z,3.03
2023-03-21T16:25:21.513Z,2.67
2023-03-21T16:28:02.825Z,3.42
2023-03-21T16:30:53.433Z,4.47
2023-03-21T16:33:22.667Z,4.65
2023-03-21T16:35:55.572Z,3.72
2023-03-21T16:38:55.323Z,3.83
2023-03-21T16:41:37.220Z,3.53
2023-03-21T16:45:37.689Z,4.65
2023-03-21T16:47:45.160Z,8.70
2023-03-21T16:50:44.129Z,8.35
2023-03-21T16:53:19.576Z,8.90
2023-03-21T16:56:02.542Z,8.25
2023-03-21T16:58:30.059Z,8.93
2023-03-21T17:00:57.401Z,9.20
2023-03-21T17:03:24.911Z,8.52
2023-03-21T17:05:52.297Z,8.57
2023-03-21T17:08:21.808Z,12.05
2023-03-21T17:10:49.253Z,11.90
2023-03-21T17:13:16.738Z,10.63
2023-03-21T17:15:44.067Z,9.43
2023-03-21T17:18:12.729Z,8.25
2023-03-21T17:20:44.994Z,7.35
2023-03-21T17:23:24.407Z,4.40
2023-03-21T17:25:56.007Z,3.28
2023-03-21T17:28:23.921Z,3.50
2023-03-21T17:30:51.394Z,3.10
2023-03-21T17:33:20.929Z,3.28
2023-03-21T17:35:50.787Z,5.00
2023-03-21T17:38:18.460Z,3.65
2023-03-21T17:40:45.856Z,3.53
2023-03-21T17:43:18.153Z,3.67
2023-03-21T17:45:45.581Z,3.75
2023-03-21T17:48:14.459Z,3.78
2023-03-21T17:50:41.887Z,4.93
2023-03-21T17:53:09.246Z,7.05
2023-03-21T17:55:40.089Z,7.30
2023-03-21T17:58:07.513Z,6.65
2023-03-21T18:00:35.891Z,6.38
2023-03-21T18:03:03.281Z,6.70
2023-03-21T18:05:30.677Z,6.63
2023-03-21T18:08:15.949Z,10.75
2023-03-21T18:10:43.654Z,11.02
2023-03-21T18:13:11.441Z,9.00
2023-03-21T18:15:44.257Z,8.52
2023-03-21T18:18:12.312Z,8.57
2023-03-21T18:20:51.816Z,10.18
2023-03-21T18:23:21.138Z,10.30
2023-03-21T18:25:53.569Z,9.45
2023-03-21T18:28:21.870Z,9.88
2023-03-21T18:31:07.414Z,9.50
2023-03-21T18:33:35.943Z,8.35
2023-03-21T18:36:07.570Z,9.23
2023-03-21T18:41:03.549Z,10.52
2023-03-21T18:46:19.375Z,15.00
2023-03-21T18:48:47.973Z,13.65
2023-03-21T18:51:19.869Z,13.90
2023-03-21T18:56:56.142Z,11.95
2023-03-21T18:59:03.039Z,13.73
2023-03-21T19:01:30.479Z,13.15
2023-03-21T19:04:20.059Z,11.07
2023-03-21T19:06:47.651Z,9.35
2023-03-21T19:09:16.019Z,9.77
2023-03-21T19:11:45.560Z,10.05
2023-03-21T19:14:13.523Z,9.63
2023-03-21T19:17:14.947Z,9.52
2023-03-21T19:19:29.599Z,7.95
2023-03-21T19:21:57.267Z,8.60
2023-03-21T19:24:28.345Z,9.68
2023-03-21T19:26:56.482Z,9.95
2023-03-21T19:29:23.854Z,10.52
2023-03-21T19:31:51.589Z,9.98
2023-03-21T19:34:19.499Z,9.05
2023-03-21T19:36:51.666Z,10.45
2023-03-21T19:39:22.524Z,11.05
2023-03-21T19:41:50.958Z,10.90
2023-03-21T19:44:19.501Z,9.13
2023-03-21T19:46:48.404Z,8.18
2023-03-21T19:49:20.121Z,7.75
2023-03-21T19:51:47.821Z,8.25
2023-03-21T19:54:17.518Z,7.10
2023-03-21T19:56:47.644Z,6.88
2023-03-21T19:59:15.792Z,7.93
2023-03-21T20:01:43.450Z,7.15
2023-03-21T20:04:11.432Z,8.13
2023-03-21T20:06:38.759Z,8.48
2023-03-21T20:09:50.031Z,7.95
2023-03-21T20:11:54.564Z,7.32
2023-03-21T20:14:22.192Z,7.45
2023-03-21T20:16:59.359Z,7.43
2023-03-21T20:19:42.019Z,7.13
2023-03-21T20:22:20.235Z,7.32
2023-03-21T20:24:54.486Z,7.40
2023-03-21T20:27:29.894Z,7.55
2023-03-21T20:30:09.264Z,6.88
2023-03-21T20:32:37.790Z,8.25
2023-03-21T20:35:22.981Z,7.72
2023-03-21T20:37:54.367Z,7.40
2023-03-21T20:40:22.533Z,7.22
2023-03-21T20:42:50.309Z,6.80
2023-03-21T20:45:18.121Z,6.85
2023-03-21T20:47:45.493Z,7.60
2023-03-21T20:50:14.033Z,9.88
2023-03-21T20:53:04.835Z,9.20
2023-03-21T20:55:30.064Z,7.80
2023-03-21T20:57:57.494Z,7.15
2023-03-21T21:00:26.336Z,7.28
2023-03-21T21:02:53.882Z,7.05
2023-03-21T21:05:28.187Z,7.18
2023-03-21T21:07:56.978Z,7.45
2023-03-21T21:10:25.738Z,7.00
2023-03-21T21:12:53.400Z,6.88
2023-03-21T21:15:21.139Z,6.85
2023-03-21T21:18:07.097Z,6.65
2023-03-21T21:20:35.842Z,6.32
2023-03-21T21:23:03.280Z,5.55
2023-03-21T21:25:42.885Z,5.50
2023-03-21T21:28:13.620Z,5.60
2023-03-21T21:30:41.717Z,5.38
2023-03-21T21:33:09.521Z,5.57
2023-03-21T21:35:37.110Z,5.38
2023-03-21T21:38:07.481Z,5.60
2023-03-21T21:40:34.813Z,5.55
2023-03-21T21:43:03.782Z,5.60
2023-03-21T21:45:31.492Z,5.35
2023-03-21T21:48:02.108Z,5.70
2023-03-21T21:50:29.576Z,6.22
2023-03-21T21:52:56.977Z,5.75
2023-03-21T21:55:24.342Z,5.40
2023-03-21T21:57:52.840Z,6.07
2023-03-21T22:00:20.723Z,6.28
2023-03-21T22:02:51.256Z,6.03
2023-03-21T22:05:19.169Z,5.65
2023-03-21T22:07:48.989Z,5.75
2023-03-21T22:10:17.842Z,5.50
2023-03-21T22:12:45.213Z,5.60
2023-03-21T22:15:13.404Z,6.03
2023-03-21T22:17:41.767Z,5.68
2023-03-21T22:20:09.809Z,5.93
2023-03-21T22:22:40.087Z,7.07
2023-03-21T22:25:09.462Z,7.35
2023-03-21T22:27:41.156Z,7.03
2023-03-21T22:30:10.236Z,7.38
2023-03-21T22:32:38.643Z,7.80
2023-03-21T22:35:06.899Z,6.93
2023-03-21T22:37:38.285Z,7.30
2023-03-21T22:40:08.245Z,6.28
2023-03-21T22:42:35.634Z,7.40
2023-03-21T22:45:03.683Z,7.90
2023-03-21T22:47:31.211Z,7.95
2023-03-21T22:49:58.533Z,8.02
2023-03-21T22:52:26.123Z,8.13
2023-03-21T22:54:53.588Z,7.63
2023-03-21T22:57:21.102Z,7.13
2023-03-21T22:59:48.525Z,8.13
2023-03-21T23:02:16.107Z,8.05
2023-03-21T23:04:43.469Z,8.05
2023-03-21T23:07:11.019Z,7.38
2023-03-21T23:09:38.498Z,8.70
2023-03-21T23:12:05.990Z,9.18
2023-03-21T23:14:33.369Z,8.32
2023-03-21T23:17:02.528Z,9.35
2023-03-21T23:19:30.656Z,9.80
2023-03-21T23:21:58.558Z,8.13
2023-03-21T23:24:26.506Z,9.45
2023-03-21T23:26:53.818Z,10.05
2023-03-21T23:29:21.213Z,11.52
2023-03-21T23:31:49.178Z,10.85
2023-03-21T23:34:16.509Z,9.60
2023-03-21T23:36:43.929Z,9.77
2023-03-21T23:39:11.470Z,9.48
2023-03-21T23:41:38.836Z,7.82
2023-03-21T23:44:06.555Z,8.27
2023-03-21T23:46:33.890Z,7.30
2023-03-21T23:49:01.740Z,7.82
2023-03-21T23:51:29.068Z,7.10
2023-03-21T23:53:56.534Z,6.72
2023-03-21T23:56:24.805Z,6.25
2023-03-21T23:58:52.800Z,7.20
